Terminal Aerodrome Forecast
Issued by NWS Portland, OR

Home | Current Version | Previous Version | Text Only | Print | Product List | Glossary On
Versions: 1 2 3 4 5 6 7 8 9 10 11 12 13 14 15 16 17 18 19 20 21 22 23 24 25 26 27 28 29 30 31 32 33 34
000
FTUS46 KPQR 141120
TAFAST
TAF
KAST 141120Z 1412/1512 23004KT 6SM BR BKN008 OVC010
     FM141300 25005KT 1SM BR OVC005
     FM141700 28006KT P6SM OVC009
     FM142200 30010KT P6SM BKN012 OVC020
     FM150000 30012KT P6SM FEW020=

USA.gov is the U.S. government's official web portal to all federal, state and local government web resources and services.